^^
Datos históricos de la estación: Murcia-Puente Tocinos
Diario Informe para Julio 16, 2021 Unidades:  Métrico    Ingés   Ambas
Diario Semanal Mensual Anual
  Máxima: Mínima: Promedio:
Temperatura: 16.2 °C 8 °C 11.3 °C
Punto de rocio: 4.5 °C -3 °C -1 °C
Humedad: 73.7% 29% 44%
Velocidad viento: 23.3km/h 2.9km/h 7.1km/h
Racha viento: 43.5km/h - -
Viento- - SSO
Presión: 1028.0 hPa 1021.7 hPa -
Precipitación: 0.0 mm    
 
 
Tabla de datos para Julio 16, 2021
Hora Temperatura Punto de rocio Presión Viento Velocidad viento Racha viento Humedad Intensidad lluvia(por hora) Nubes
00:04 11.1 °C -1.7 °C 1022.7 hPa SO 10 km/h 19.3 km/h 41% 0.0 mm
00:09 11.1 °C -1.7 °C 1022.7 hPa SO 10 km/h 15.6 km/h 41% 0.0 mm
00:14 11 °C -1.8 °C 1022.6 hPa SO 10 km/h 16.7 km/h 41% 0.0 mm
00:19 10.9 °C -1.8 °C 1022.6 hPa SO 9.6 km/h 16.7 km/h 41.1% 0.0 mm
00:24 10.8 °C -1.6 °C 1022.6 hPa OSO 9.5 km/h 20.4 km/h 42% 0.0 mm
00:29 10.7 °C -1.7 °C 1022.4 hPa OSO 8.8 km/h 22.2 km/h 42% 0.0 mm
00:34 10.7 °C -1.7 °C 1022.4 hPa Oeste 8.7 km/h 24.5 km/h 42% 0.0 mm
00:39 10.6 °C -1.5 °C 1022.4 hPa OSO 11.6 km/h 24.1 km/h 43% 0.0 mm
00:44 10.5 °C -1.6 °C 1022.3 hPa OSO 11.9 km/h 16.7 km/h 43% 0.0 mm
00:49 10.4 °C -1.7 °C 1022.3 hPa OSO 8 km/h 16.1 km/h 43% 0.0 mm
00:54 10.3 °C -1.5 °C 1022.4 hPa OSO 7.6 km/h 13 km/h 44% 0.0 mm
00:59 10.2 °C -1.6 °C 1022.4 hPa OSO 6 km/h 13 km/h 44% 0.0 mm
01:04 10.2 °C -1.6 °C 1022.4 hPa OSO 5.8 km/h 13 km/h 44% 0.0 mm
01:09 10.2 °C -1.6 °C 1022.4 hPa OSO 6.3 km/h 12.9 km/h 44% 0.0 mm
01:14 10.2 °C -1.6 °C 1022.2 hPa OSO 6.5 km/h 11.3 km/h 44% 0.0 mm
01:19 10.1 °C -1.6 °C 1022.2 hPa OSO 6.5 km/h 11.9 km/h 44% 0.0 mm
01:24 10 °C -1.5 °C 1022.2 hPa Oeste 6.5 km/h 16.7 km/h 44.7% 0.0 mm
01:29 10 °C -1.6 °C 1022.1 hPa OSO 7.4 km/h 18.5 km/h 44.4% 0.0 mm
01:34 9.9 °C -1.5 °C 1022.1 hPa OSO 7.6 km/h 19.3 km/h 45% 0.0 mm
01:39 9.9 °C -1.5 °C 1022.1 hPa OSO 7 km/h 14.8 km/h 45% 0.0 mm
01:44 9.9 °C -1.5 °C 1022.1 hPa OSO 6.9 km/h 19 km/h 45% 0.0 mm
01:49 9.9 °C -1.7 °C 1022.1 hPa OSO 7.5 km/h 19.3 km/h 44.3% 0.0 mm
01:54 10.1 °C -1.6 °C 1022.1 hPa OSO 7.6 km/h 16.1 km/h 44% 0.0 mm
01:59 10.2 °C -1.6 °C 1021.9 hPa Oeste 8.2 km/h 19 km/h 44% 0.0 mm
02:04 10.2 °C -1.6 °C 1021.9 hPa Oeste 8.4 km/h 19.3 km/h 44% 0.0 mm
02:09 10.3 °C -1.8 °C 1021.9 hPa Oeste 10 km/h 24.1 km/h 43.1% 0.0 mm
02:14 10.4 °C -1.7 °C 1021.8 hPa Oeste 10.3 km/h 24.1 km/h 43% 0.0 mm
02:19 10.4 °C -1.8 °C 1021.8 hPa Oeste 10.3 km/h 30.9 km/h 42.6% 0.0 mm
02:24 10.6 °C -1.8 °C 1021.8 hPa OSO 10.3 km/h 32.2 km/h 42% 0.0 mm
02:29 10.5 °C -1.9 °C 1021.7 hPa Oeste 11.9 km/h 32.2 km/h 42% 0.0 mm
02:34 10.6 °C -1.8 °C 1021.7 hPa Oeste 12.2 km/h 27 km/h 42% 0.0 mm
02:39 10.6 °C -1.8 °C 1021.7 hPa OSO 12.9 km/h 27.4 km/h 42% 0.0 mm
02:44 10.6 °C -1.8 °C 1021.7 hPa Oeste 13 km/h 24.1 km/h 42% 0.0 mm
02:49 10.7 °C -1.7 °C 1021.7 hPa Oeste 10.7 km/h 24.5 km/h 42% 0.0 mm
02:54 10.7 °C -1.7 °C 1021.8 hPa Oeste 10.3 km/h 30.9 km/h 42% 0.0 mm
02:59 10.7 °C -1.7 °C 1021.8 hPa Oeste 13.2 km/h 32.2 km/h 42% 0.0 mm
03:04 10.7 °C -1.7 °C 1021.8 hPa Oeste 13.7 km/h 32.2 km/h 42% 0.0 mm
03:09 10.8 °C -1.7 °C 1021.9 hPa Oeste 13.7 km/h 32.2 km/h 41.8% 0.0 mm
03:14 10.8 °C -1.9 °C 1021.9 hPa ONO 13.7 km/h 31.7 km/h 41% 0.0 mm
03:19 10.9 °C -1.8 °C 1021.9 hPa ONO 16 km/h 33.3 km/h 41% 0.0 mm
03:24 10.9 °C -1.8 °C 1021.9 hPa ONO 16.4 km/h 33.8 km/h 41% 0.0 mm
03:29 10.9 °C -1.8 °C 1021.9 hPa ONO 14.1 km/h 24.1 km/h 41% 0.0 mm
03:34 10.9 °C -1.8 °C 1021.9 hPa ONO 13.7 km/h 17.7 km/h 41% 0.0 mm
03:39 10.9 °C -1.8 °C 1022.2 hPa NO 8 km/h 13 km/h 41% 0.0 mm
03:44 10.8 °C -1.9 °C 1022.2 hPa NE 7.6 km/h 13 km/h 41% 0.0 mm
03:49 10.7 °C -1.9 °C 1022.2 hPa SE 5.1 km/h 8.4 km/h 41.4% 0.0 mm
03:54 10.3 °C -1.8 °C 1022.2 hPa ESE 4.7 km/h 9.3 km/h 42.7% 0.0 mm
03:59 9.8 °C -1.9 °C 1022.1 hPa SE 4.9 km/h 11.1 km/h 43.9% 0.0 mm
04:04 9.6 °C -1.8 °C 1022.1 hPa SSE 5 km/h 11.3 km/h 45% 0.0 mm
04:09 9.4 °C -1.9 °C 1022.3 hPa Este 5.7 km/h 11.3 km/h 45% 0.0 mm
04:14 9.4 °C -1.8 °C 1022.3 hPa SE 5.8 km/h 8.4 km/h 45.5% 0.0 mm
04:19 9.4 °C -1.8 °C 1022.3 hPa SSE 4 km/h 8 km/h 45.7% 0.0 mm
04:24 9.4 °C -1.7 °C 1022.3 hPa SSE 3.9 km/h 8 km/h 46% 0.0 mm
04:29 9.4 °C -1.7 °C 1022.2 hPa ESE 4.5 km/h 8 km/h 45.8% 0.0 mm
04:34 9.4 °C -1.9 °C 1022.2 hPa SSE 4.7 km/h 6.4 km/h 45.2% 0.0 mm
04:39 9.4 °C -2 °C 1022.2 hPa OSO 3.2 km/h 6.4 km/h 44.7% 0.0 mm
04:44 9.7 °C -2 °C 1022.2 hPa ONO 2.9 km/h 10.3 km/h 44% 0.0 mm
04:49 9.8 °C -2 °C 1022.2 hPa ONO 4.5 km/h 14.8 km/h 43.5% 0.0 mm
04:54 10.1 °C -2 °C 1022.2 hPa ONO 4.7 km/h 14.8 km/h 43% 0.0 mm
04:59 9.9 °C -2.1 °C 1022.2 hPa ONO 8.1 km/h 12.9 km/h 43% 0.0 mm
05:04 9.9 °C -2.1 °C 1022.2 hPa ONO 8.7 km/h 11.3 km/h 43% 0.0 mm
05:09 10 °C -2 °C 1022.2 hPa NO 5.5 km/h 9.7 km/h 43% 0.0 mm
05:14 10.1 °C -2 °C 1022.2 hPa NNO 5 km/h 18.5 km/h 43% 0.0 mm
05:19 10.2 °C -1.9 °C 1022.2 hPa ONO 5.7 km/h 19.3 km/h 42.5% 0.0 mm
05:24 10.3 °C -2 °C 1022.2 hPa Oeste 5.8 km/h 29.6 km/h 42% 0.0 mm
05:29 10.4 °C -2 °C 1022.1 hPa Oeste 12.8 km/h 37 km/h 42% 0.0 mm
05:34 10.7 °C -2 °C 1022.1 hPa Oeste 14 km/h 43.1 km/h 41.1% 0.0 mm
05:39 10.8 °C -1.9 °C 1022.2 hPa ONO 22.6 km/h 43.5 km/h 41% 0.0 mm
05:44 10.7 °C -2 °C 1022.2 hPa ONO 23.3 km/h 27.4 km/h 41% 0.0 mm
05:49 10.5 °C -1.9 °C 1022.2 hPa ONO 13.9 km/h 29.6 km/h 41.8% 0.0 mm
05:54 10.4 °C -1.9 °C 1022.5 hPa NNE 12.2 km/h 29 km/h 42.2% 0.0 mm
05:59 9.8 °C -2 °C 1022.5 hPa ESE 10.2 km/h 16.1 km/h 43.7% 0.0 mm
06:04 9.4 °C -2 °C 1022.5 hPa Este 10 km/h 9.7 km/h 44.8% 0.0 mm
06:09 9.3 °C -2 °C 1022.6 hPa ESE 6.1 km/h 14.8 km/h 45.3% 0.0 mm
06:14 9.2 °C -1.9 °C 1022.6 hPa SE 5.8 km/h 14.5 km/h 46% 0.0 mm
06:19 9.1 °C -1.9 °C 1022.6 hPa SE 4.8 km/h 9.3 km/h 46% 0.0 mm
06:24 9.2 °C -2 °C 1023.0 hPa Oeste 4.7 km/h 9.7 km/h 45.2% 0.0 mm
06:29 9.3 °C -2.1 °C 1023.0 hPa Oeste 4 km/h 8 km/h 45% 0.0 mm
06:34 9.4 °C -2 °C 1023.0 hPa North 3.9 km/h 10 km/h 45% 0.0 mm
06:39 9.4 °C -2 °C 1023.3 hPa North 4.5 km/h 13.7 km/h 44.7% 0.0 mm
06:44 9.5 °C -2.1 °C 1023.3 hPa NNE 4.7 km/h 14.5 km/h 44.2% 0.0 mm
06:49 9.5 °C -2 °C 1023.3 hPa ONO 6.3 km/h 11.9 km/h 44.5% 0.0 mm
06:54 9.3 °C -2 °C 1023.4 hPa Oeste 6.5 km/h 11.3 km/h 45% 0.0 mm
06:59 9.2 °C -2 °C 1023.4 hPa OSO 3.5 km/h 7.4 km/h 45.7% 0.0 mm
07:04 9 °C -2 °C 1023.4 hPa ONO 3.2 km/h 13 km/h 46% 0.0 mm
07:09 8.9 °C -2.1 °C 1023.7 hPa NE 3.8 km/h 12.9 km/h 46% 0.0 mm
07:14 8.9 °C -2.1 °C 1023.7 hPa ENE 3.9 km/h 11.3 km/h 46% 0.0 mm
07:19 8.9 °C -2.1 °C 1023.7 hPa NNE 4.8 km/h 10 km/h 46% 0.0 mm
07:24 9 °C -2 °C 1023.8 hPa ONO 5 km/h 20.4 km/h 46% 0.0 mm
07:29 9.1 °C -1.9 °C 1023.8 hPa ONO 8.4 km/h 20.9 km/h 46% 0.0 mm
07:34 9 °C -2 °C 1023.8 hPa Oeste 8.7 km/h 20.9 km/h 46% 0.0 mm
07:39 8.8 °C -2.1 °C 1023.9 hPa SO 7.7 km/h 16.7 km/h 46.3% 0.0 mm
07:44 8.7 °C -2 °C 1023.9 hPa ENE 7.6 km/h 16.1 km/h 47% 0.0 mm
07:49 8.6 °C -2.1 °C 1023.9 hPa NNE 5.2 km/h 11.9 km/h 47% 0.0 mm
07:54 8.6 °C -1.9 °C 1024.3 hPa NE 5 km/h 11.3 km/h 47.7% 0.0 mm
07:59 8.4 °C -2 °C 1024.3 hPa OSO 4.7 km/h 11.3 km/h 48% 0.0 mm
08:04 8.3 °C -2 °C 1024.3 hPa NE 4.7 km/h 9.7 km/h 48% 0.0 mm
08:09 8.3 °C -2.1 °C 1024.4 hPa Oeste 3.9 km/h 7.6 km/h 48% 0.0 mm
08:14 8.3 °C -1.9 °C 1024.4 hPa SO 3.9 km/h 11.9 km/h 48.6% 0.0 mm
08:19 8.3 °C -1.8 °C 1024.4 hPa SO 4.6 km/h 11.9 km/h 49% 0.0 mm
08:24 8.2 °C -1.9 °C 1024.6 hPa SO 4.7 km/h 11.9 km/h 49% 0.0 mm
08:29 8.1 °C -2 °C 1024.6 hPa OSO 7.3 km/h 11.9 km/h 49% 0.0 mm
08:34 8.1 °C -2 °C 1024.6 hPa SO 7.6 km/h 13 km/h 49% 0.0 mm
08:39 8.1 °C -1.9 °C 1024.8 hPa OSO 8.2 km/h 11.1 km/h 49.5% 0.0 mm
08:44 8 °C -1.8 °C 1024.8 hPa SO 8.4 km/h 11.9 km/h 50% 0.0 mm
08:49 8 °C -1.8 °C 1024.8 hPa SO 7.1 km/h 13.7 km/h 50% 0.0 mm
08:54 8.1 °C -2 °C 1025.1 hPa SO 6.9 km/h 14.8 km/h 49.1% 0.0 mm
08:59 8.2 °C -1.8 °C 1025.1 hPa SO 8.6 km/h 16.7 km/h 49% 0.0 mm
09:04 8.4 °C -1.9 °C 1025.1 hPa SO 8.7 km/h 16.7 km/h 48.5% 0.0 mm
09:09 8.4 °C -1.9 °C 1025.5 hPa OSO 9.4 km/h 16.1 km/h 48% 0.0 mm
09:14 8.6 °C -1.9 °C 1025.5 hPa SO 9.5 km/h 14.8 km/h 48% 0.0 mm
09:19 8.6 °C -1.8 °C 1025.5 hPa SO 7.8 km/h 16.7 km/h 48% 0.0 mm
09:24 8.7 °C -1.8 °C 1025.7 hPa SSO 7.6 km/h 16.1 km/h 47.8% 0.0 mm
09:29 8.7 °C -2 °C 1025.7 hPa SO 8.3 km/h 16.7 km/h 47% 0.0 mm
09:34 8.8 °C -1.9 °C 1025.7 hPa SSO 8.4 km/h 16.1 km/h 47% 0.0 mm
09:39 9 °C -1.8 °C 1026.1 hPa SO 8.4 km/h 15.6 km/h 46.7% 0.0 mm
09:44 9.1 °C -1.7 °C 1026.1 hPa SO 8.4 km/h 16.1 km/h 46.9% 0.0 mm
09:49 9.2 °C -1.6 °C 1026.1 hPa Sur 8.4 km/h 11.3 km/h 47% 0.0 mm
09:54 9.3 °C -1.5 °C 1026.3 hPa SSO 8.4 km/h 14.8 km/h 46.9% 0.0 mm
09:59 9.3 °C -1.4 °C 1026.3 hPa Sur 7.6 km/h 14.5 km/h 47% 0.0 mm
10:04 9.4 °C -1.4 °C 1026.3 hPa SSO 7.6 km/h 14 km/h 47% 0.0 mm
10:09 9.4 °C -1.5 °C 1026.5 hPa SSO 8.3 km/h 14.8 km/h 46.6% 0.0 mm
10:14 9.5 °C -1.5 °C 1026.5 hPa SSO 8.4 km/h 13 km/h 46.1% 0.0 mm
10:19 9.7 °C -1.4 °C 1026.5 hPa SO 7.6 km/h 13.7 km/h 46% 0.0 mm
10:24 9.8 °C -1.4 °C 1026.7 hPa SO 7.6 km/h 14.5 km/h 45.6% 0.0 mm
10:29 9.9 °C -1.5 °C 1026.7 hPa SO 6.6 km/h 12.2 km/h 45% 0.0 mm
10:34 10 °C -1.6 °C 1026.7 hPa SO 6.5 km/h 15.6 km/h 44.3% 0.0 mm
10:39 10.1 °C -1.6 °C 1027.0 hPa OSO 7.4 km/h 16.4 km/h 44% 0.0 mm
10:44 10.2 °C -1.7 °C 1027.0 hPa OSO 7.6 km/h 16.7 km/h 43.5% 0.0 mm
10:49 10.3 °C -1.8 °C 1027.0 hPa SO 8.3 km/h 16.7 km/h 43% 0.0 mm
10:54 10.4 °C -1.6 °C 1027.0 hPa SSO 8.4 km/h 16.1 km/h 43% 0.0 mm
10:59 10.6 °C -1.7 °C 1027.0 hPa SO 6.6 km/h 13 km/h 42.1% 0.0 mm
11:04 10.8 °C -1.6 °C 1027.0 hPa Sur 6.5 km/h 12.9 km/h 42.2% 0.0 mm
11:09 10.9 °C -1.7 °C 1027.3 hPa SO 6.9 km/h 11.9 km/h 41.4% 0.0 mm
11:14 10.8 °C -1.9 °C 1027.3 hPa SO 6.9 km/h 11.9 km/h 41% 0.0 mm
11:19 10.8 °C -1.9 °C 1027.3 hPa SO 8.1 km/h 11.3 km/h 41% 0.0 mm
11:24 10.9 °C -1.7 °C 1027.4 hPa SO 8.4 km/h 11.3 km/h 41.3% 0.0 mm
11:29 11.2 °C -1.6 °C 1027.4 hPa SO 5.3 km/h 11.1 km/h 41.1% 0.0 mm
11:34 11.3 °C -1.7 °C 1027.4 hPa SO 5 km/h 11.9 km/h 40.3% 0.0 mm
11:39 11.4 °C -1.7 °C 1027.4 hPa SSO 6.2 km/h 11.3 km/h 40.1% 0.0 mm
11:44 11.8 °C -1.6 °C 1027.3 hPa Sur 6.4 km/h 13 km/h 39.5% 0.0 mm
11:49 12 °C -1.6 °C 1027.3 hPa Sur 5.9 km/h 12.9 km/h 39% 0.0 mm
11:54 12.1 °C -1.5 °C 1027.3 hPa SSO 5.8 km/h 11.9 km/h 38.8% 0.0 mm
11:59 12.1 °C -1.8 °C 1027.3 hPa SO 6.8 km/h 11.9 km/h 38% 0.0 mm
12:04 12.1 °C -1.8 °C 1027.3 hPa SSO 6.9 km/h 13 km/h 38% 0.0 mm
12:09 12.1 °C -1.9 °C 1027.3 hPa SSO 6.9 km/h 13 km/h 37.9% 0.0 mm
12:14 12.2 °C -1.7 °C 1027.2 hPa Sur 6.9 km/h 13.7 km/h 38% 0.0 mm
12:19 12.2 °C -2 °C 1027.2 hPa SSO 8.3 km/h 14.8 km/h 37.1% 0.0 mm
12:24 12.3 °C -1.7 °C 1027.2 hPa Sur 8.4 km/h 14.8 km/h 37.8% 0.0 mm
12:29 12.5 °C -1.8 °C 1027.1 hPa SO 7.6 km/h 14.5 km/h 36.9% 0.0 mm
12:34 12.7 °C -2 °C 1027.1 hPa Sur 7.6 km/h 14.8 km/h 36.1% 0.0 mm
12:39 12.7 °C -2 °C 1027.1 hPa SSO 6.6 km/h 14.5 km/h 36% 0.0 mm
12:44 12.8 °C -2 °C 1026.9 hPa SSO 6.5 km/h 11.1 km/h 35.8% 0.0 mm
12:49 12.9 °C -2.2 °C 1026.9 hPa OSO 5.9 km/h 16.7 km/h 35% 0.0 mm
12:54 12.9 °C -2.2 °C 1026.9 hPa SO 5.8 km/h 16.1 km/h 35% 0.0 mm
12:59 13 °C -2.1 °C 1026.4 hPa Oeste 9 km/h 14.8 km/h 35% 0.0 mm
13:04 13.1 °C -2.1 °C 1026.4 hPa OSO 9.5 km/h 14.8 km/h 34.8% 0.0 mm
13:09 13.2 °C -2.3 °C 1026.4 hPa SO 6.1 km/h 14.8 km/h 34.2% 0.0 mm
13:14 13.2 °C -2.2 °C 1026.4 hPa SO 5.8 km/h 14.8 km/h 34.3% 0.0 mm
13:19 13.4 °C -2.2 °C 1026.4 hPa Oeste 8.4 km/h 14.8 km/h 34% 0.0 mm
13:24 13.4 °C -2.2 °C 1026.4 hPa Oeste 8.7 km/h 16.4 km/h 34% 0.0 mm
13:29 13.4 °C -2.2 °C 1026.3 hPa OSO 9.9 km/h 16.7 km/h 34% 0.0 mm
13:34 13.5 °C -2.5 °C 1026.3 hPa SO 10 km/h 16.1 km/h 33% 0.0 mm
13:39 13.7 °C -2.3 °C 1026.3 hPa SSO 8.5 km/h 17.2 km/h 33% 0.0 mm
13:44 13.9 °C -2.3 °C 1026.2 hPa SO 8.4 km/h 17.7 km/h 32.6% 0.0 mm
13:49 13.9 °C -2.5 °C 1026.2 hPa SSO 8.4 km/h 16.7 km/h 32.2% 0.0 mm
13:54 14 °C -2.4 °C 1026.2 hPa Sur 8.4 km/h 16.4 km/h 32.1% 0.0 mm
13:59 14.2 °C -2.4 °C 1026.1 hPa SO 9.8 km/h 16.1 km/h 31.8% 0.0 mm
14:04 14.1 °C -2.8 °C 1026.1 hPa OSO 10 km/h 16.7 km/h 31% 0.0 mm
14:09 14.1 °C -2.8 °C 1026.1 hPa OSO 9.6 km/h 16.1 km/h 31% 0.0 mm
14:14 14.2 °C -2.7 °C 1025.9 hPa SO 9.5 km/h 13 km/h 31% 0.0 mm
14:19 14.3 °C -2.9 °C 1025.9 hPa SO 6.7 km/h 12.9 km/h 30.3% 0.0 mm
14:24 14.4 °C -2.9 °C 1025.9 hPa OSO 6.5 km/h 11.1 km/h 30.3% 0.0 mm
14:29 14.4 °C -3 °C 1025.8 hPa OSO 5.9 km/h 11.3 km/h 30.1% 0.0 mm
14:34 14.4 °C -2.9 °C 1025.8 hPa SSO 5.8 km/h 11.3 km/h 30.3% 0.0 mm
14:39 14.5 °C -2.7 °C 1025.8 hPa Sur 6.7 km/h 11.3 km/h 30.6% 0.0 mm
14:44 14.7 °C -2.6 °C 1025.8 hPa SO 6.9 km/h 11.9 km/h 30.4% 0.0 mm
14:49 14.7 °C -2.2 °C 1025.8 hPa SO 5.9 km/h 16.7 km/h 31% 0.0 mm
14:54 14.8 °C -2.5 °C 1025.8 hPa SO 5.8 km/h 16.7 km/h 30.4% 0.0 mm
14:59 14.7 °C -2.5 °C 1025.7 hPa OSO 8.5 km/h 16.1 km/h 30.4% 0.0 mm
15:04 14.7 °C -2.5 °C 1025.7 hPa SSO 8.7 km/h 14.8 km/h 30.6% 0.0 mm
15:09 14.8 °C -2.4 °C 1025.7 hPa Sur 8.4 km/h 13.7 km/h 30.7% 0.0 mm
15:14 14.8 °C -2.2 °C 1025.7 hPa SO 8.4 km/h 14.5 km/h 31% 0.0 mm
15:19 14.9 °C -2.1 °C 1025.7 hPa SO 7.2 km/h 14.5 km/h 31% 0.0 mm
15:24 15.1 °C -2 °C 1025.7 hPa ONO 6.9 km/h 13.7 km/h 30.8% 0.0 mm
15:29 15.1 °C -2 °C 1025.5 hPa OSO 6 km/h 14.8 km/h 30.8% 0.0 mm
15:34 15 °C -2 °C 1025.5 hPa SO 5.8 km/h 14.8 km/h 31.1% 0.0 mm
15:39 14.9 °C -1.6 °C 1025.5 hPa SSO 8.3 km/h 14.5 km/h 32% 0.0 mm
15:44 15.1 °C -1.6 °C 1025.5 hPa OSO 8.7 km/h 9.7 km/h 31.8% 0.0 mm
15:49 15.2 °C -1.5 °C 1025.5 hPa SO 5.3 km/h 13 km/h 31.8% 0.0 mm
15:54 15.2 °C -1.8 °C 1025.5 hPa OSO 5 km/h 12.9 km/h 31% 0.0 mm
15:59 15.2 °C -1.8 °C 1025.5 hPa OSO 6.8 km/h 11.3 km/h 31% 0.0 mm
16:04 15.2 °C -1.8 °C 1025.5 hPa SSO 6.9 km/h 11.1 km/h 31% 0.0 mm
16:09 15.3 °C -1.8 °C 1025.5 hPa OSO 6.5 km/h 11.3 km/h 31% 0.0 mm
16:14 15.3 °C -2 °C 1025.5 hPa Oeste 6.5 km/h 11.3 km/h 30.5% 0.0 mm
16:19 15.3 °C -1.9 °C 1025.5 hPa OSO 5.9 km/h 10 km/h 30.5% 0.0 mm
16:24 15.4 °C -1.7 °C 1025.7 hPa SO 5.8 km/h 13 km/h 31% 0.0 mm
16:29 15.4 °C -1.6 °C 1025.7 hPa OSO 6.4 km/h 13 km/h 31% 0.0 mm
16:34 15.5 °C -1.5 °C 1025.7 hPa ONO 6.5 km/h 9.7 km/h 31% 0.0 mm
16:39 15.7 °C -1.4 °C 1025.7 hPa ENE 4.1 km/h 8 km/h 31% 0.0 mm
16:44 15.8 °C -2 °C 1025.6 hPa SSE 3.9 km/h 11.9 km/h 29.7% 0.0 mm
16:49 15.7 °C -1.9 °C 1025.6 hPa SSE 5.5 km/h 11.3 km/h 29.9% 0.0 mm
16:54 15.7 °C -1.7 °C 1025.7 hPa SSO 5.8 km/h 11.3 km/h 30.4% 0.0 mm
16:59 15.7 °C -1.6 °C 1025.7 hPa Sur 6.4 km/h 11.3 km/h 30.5% 0.0 mm
17:04 15.7 °C -1.6 °C 1025.7 hPa SO 6.5 km/h 9.7 km/h 30.4% 0.0 mm
17:09 15.7 °C -2.1 °C 1025.9 hPa Oeste 4.8 km/h 8 km/h 29.5% 0.0 mm
17:14 15.8 °C -2 °C 1025.9 hPa Oeste 4.7 km/h 7.4 km/h 29.5% 0.0 mm
17:19 15.8 °C -2.2 °C 1025.9 hPa Oeste 3 km/h 8 km/h 29% 0.0 mm
17:24 16 °C -2.1 °C 1026.0 hPa Oeste 2.9 km/h 5.8 km/h 29% 0.0 mm
17:29 16.2 °C -1.9 °C 1026.0 hPa OSO 2.9 km/h 6.4 km/h 29% 0.0 mm
17:34 16.2 °C -1.9 °C 1026.0 hPa SSE 2.9 km/h 7.6 km/h 29% 0.0 mm
17:39 15.9 °C -2.1 °C 1026.0 hPa SE 3.7 km/h 8 km/h 29% 0.0 mm
17:44 15.8 °C -2.1 °C 1026.0 hPa SE 3.9 km/h 8 km/h 29.4% 0.0 mm
17:49 15.7 °C -1.9 °C 1026.0 hPa ESE 3.9 km/h 8 km/h 30% 0.0 mm
17:54 15.5 °C -2.1 °C 1026.0 hPa SE 3.9 km/h 8 km/h 30% 0.0 mm
17:59 15.3 °C -1.9 °C 1026.0 hPa SE 4.6 km/h 8 km/h 30.6% 0.0 mm
18:04 15.2 °C -1.9 °C 1026.0 hPa SE 4.6 km/h 8 km/h 31% 0.0 mm
18:09 15 °C -2 °C 1026.1 hPa SE 4.9 km/h 8 km/h 31% 0.0 mm
18:14 14.8 °C -1.9 °C 1026.1 hPa SE 5 km/h 9.5 km/h 31.6% 0.0 mm
18:19 14.7 °C -1.5 °C 1026.1 hPa SE 5.7 km/h 9.7 km/h 32.9% 0.0 mm
18:24 14.4 °C -1.3 °C 1026.1 hPa SE 5.8 km/h 9.7 km/h 34.1% 0.0 mm
18:29 14.1 °C -1 °C 1026.1 hPa SE 6.4 km/h 9.7 km/h 35.6% 0.0 mm
18:34 13.7 °C -0.8 °C 1026.1 hPa ESE 6.5 km/h 11.1 km/h 36.8% 0.0 mm
18:39 13.2 °C -1 °C 1026.3 hPa SE 6.9 km/h 11.3 km/h 37.5% 0.0 mm
18:44 12.8 °C -1.1 °C 1026.3 hPa ESE 6.9 km/h 11.3 km/h 38.2% 0.0 mm
18:49 12.6 °C -1 °C 1026.3 hPa SE 7.5 km/h 13 km/h 39.2% 0.0 mm
18:54 12.3 °C -0.9 °C 1026.3 hPa SE 7.6 km/h 12.9 km/h 40% 0.0 mm
18:59 12.2 °C -0.7 °C 1026.3 hPa SE 6.6 km/h 10 km/h 41% 0.0 mm
19:04 12 °C -0.6 °C 1026.3 hPa ESE 6.5 km/h 9.7 km/h 41.8% 0.0 mm
19:09 11.8 °C -0.5 °C 1026.4 hPa SE 6.5 km/h 9.7 km/h 42.6% 0.0 mm
19:14 11.7 °C -0.2 °C 1026.4 hPa ESE 6.4 km/h 7.6 km/h 43.8% 0.0 mm
19:19 11.6 °C 0 °C 1026.4 hPa SE 5.2 km/h 8.4 km/h 44.8% 0.0 mm
19:24 11.6 °C 0.3 °C 1026.6 hPa SE 5 km/h 8 km/h 45.9% 0.0 mm
19:29 11.4 °C 0.7 °C 1026.6 hPa ESE 4 km/h 8.4 km/h 47.5% 0.0 mm
19:34 11.4 °C 1.2 °C 1026.6 hPa SE 3.9 km/h 9.3 km/h 49.6% 0.0 mm
19:39 11.4 °C 1.2 °C 1026.7 hPa Sur 4.8 km/h 9.7 km/h 49.7% 0.0 mm
19:44 11.3 °C 0.5 °C 1026.7 hPa SO 5 km/h 13 km/h 47.1% 0.0 mm
19:49 11.3 °C 0.1 °C 1026.7 hPa SO 5.7 km/h 7.6 km/h 46% 0.0 mm
19:54 11.3 °C 0.4 °C 1026.9 hPa SSO 5.8 km/h 11.1 km/h 47.1% 0.0 mm
19:59 11.3 °C 1.4 °C 1026.9 hPa SSO 5.8 km/h 13 km/h 50.5% 0.0 mm
20:04 11.3 °C 2 °C 1026.9 hPa SO 5.8 km/h 13 km/h 52.9% 0.0 mm
20:09 11.2 °C 2.3 °C 1027.0 hPa OSO 7.4 km/h 12.9 km/h 54.1% 0.0 mm
20:14 11 °C 2.3 °C 1027.0 hPa Oeste 7.6 km/h 11.3 km/h 55% 0.0 mm
20:19 10.8 °C 2.3 °C 1027.0 hPa OSO 6.1 km/h 11.3 km/h 55.7% 0.0 mm
20:24 10.6 °C 2.7 °C 1027.1 hPa SSO 5.8 km/h 10 km/h 58.2% 0.0 mm
20:29 10.6 °C 3.3 °C 1027.1 hPa Sur 6.3 km/h 9.7 km/h 60.4% 0.0 mm
20:34 10.7 °C 3.6 °C 1027.1 hPa Sur 6.5 km/h 8.7 km/h 61.6% 0.0 mm
20:39 10.7 °C 3.8 °C 1027.2 hPa Sur 5.9 km/h 9.3 km/h 62.4% 0.0 mm
20:44 10.7 °C 3.9 °C 1027.2 hPa SSO 5.8 km/h 9.7 km/h 63% 0.0 mm
20:49 10.7 °C 3.9 °C 1027.2 hPa OSO 5 km/h 8 km/h 63% 0.0 mm
20:54 10.6 °C 3.8 °C 1027.3 hPa SSO 5 km/h 5.8 km/h 63% 0.0 mm
20:59 10.5 °C 3.8 °C 1027.3 hPa SE 3 km/h 6.4 km/h 63.2% 0.0 mm
21:04 10.4 °C 3.9 °C 1027.3 hPa SE 2.9 km/h 7.4 km/h 64% 0.0 mm
21:09 10.3 °C 4 °C 1027.3 hPa SE 3.2 km/h 8 km/h 64.7% 0.0 mm
21:14 10.2 °C 4 °C 1027.3 hPa SE 3.2 km/h 5.6 km/h 65.3% 0.0 mm
21:19 10.2 °C 4.2 °C 1027.3 hPa SSO 3.2 km/h 7.6 km/h 66.5% 0.0 mm
21:24 10.2 °C 4.4 °C 1027.5 hPa SSE 3.2 km/h 8.4 km/h 67.4% 0.0 mm
21:29 10 °C 4 °C 1027.5 hPa SE 4.5 km/h 8 km/h 66.3% 0.0 mm
21:34 9.7 °C 3.8 °C 1027.5 hPa SSE 4.7 km/h 7.4 km/h 66.5% 0.0 mm
21:39 9.7 °C 4.2 °C 1027.5 hPa SSO 4.6 km/h 10 km/h 68.6% 0.0 mm
21:44 9.7 °C 4.4 °C 1027.5 hPa Sur 4.7 km/h 10 km/h 69.6% 0.0 mm
21:49 9.7 °C 4.5 °C 1027.5 hPa Sur 6.6 km/h 13 km/h 70% 0.0 mm
21:54 9.7 °C 4.4 °C 1027.5 hPa SSE 6.9 km/h 13 km/h 70% 0.0 mm
21:59 9.6 °C 4.4 °C 1027.4 hPa SSE 8.2 km/h 12.9 km/h 70% 0.0 mm
22:04 9.4 °C 4.2 °C 1027.4 hPa SE 8.4 km/h 10.3 km/h 70% 0.0 mm
22:09 9.2 °C 4 °C 1027.6 hPa SE 6 km/h 11.9 km/h 70% 0.0 mm
22:14 8.8 °C 3.8 °C 1027.6 hPa SSE 5.8 km/h 11.9 km/h 70.7% 0.0 mm
22:19 8.7 °C 3.9 °C 1027.6 hPa Sur 7.4 km/h 11.3 km/h 71.7% 0.0 mm
22:24 8.6 °C 3.9 °C 1027.8 hPa Sur 7.6 km/h 9.7 km/h 72.1% 0.0 mm
22:29 8.6 °C 4.1 °C 1027.8 hPa SE 5.4 km/h 7.4 km/h 73% 0.0 mm
22:34 8.6 °C 3.9 °C 1027.8 hPa SSE 5 km/h 8 km/h 72.1% 0.0 mm
22:39 8.6 °C 4 °C 1027.8 hPa Sur 4.7 km/h 9.5 km/h 73% 0.0 mm
22:44 8.6 °C 4 °C 1027.8 hPa Sur 4.7 km/h 9.3 km/h 73% 0.0 mm
22:49 8.6 °C 4 °C 1027.8 hPa SSE 4.9 km/h 9.7 km/h 73% 0.0 mm
22:54 8.5 °C 3.9 °C 1027.9 hPa SE 5 km/h 8.4 km/h 72.7% 0.0 mm
22:59 8.3 °C 3.6 °C 1027.9 hPa SSE 5 km/h 11.1 km/h 72% 0.0 mm
23:04 8.2 °C 3.4 °C 1027.9 hPa SSE 5 km/h 11.3 km/h 72% 0.0 mm
23:09 8.1 °C 3.5 °C 1028.0 hPa Sur 6.7 km/h 11.1 km/h 72.7% 0.0 mm
23:14 8 °C 3.6 °C 1028.0 hPa Sur 6.9 km/h 11.3 km/h 73.7% 0.0 mm
Murcia-Puente Tocinos, Espa?a
Compliments of Weather Underground - 3 mb

La estación de MeteoMurcia.com, publica sus datos en los siguientes proyectos:

Weather Underground PWS IMURCIAP2 Meteoclimatic www.awekas.at

W3Counter
Web Analytics